Time;durP1;ratioP1;P1;durP2;ratioP2;P2;SDS_P1;SDS_P2;PMS_P1;PMS_P2;Temp;Humidity;BMP_temperature;BMP_pressure;BME280_temperature;BME280_humidity;BME280_pressure;Samples;Min_cycle;Max_cycle;Signal;HPM_P1;HPM_P2
2022/07/02 00:01:21;;;;;;;0.00;0.00;;;14.30;99.90;13.00;96595.00;;;;5055250;28;20534;-77
2022/07/02 00:03:53;;;;;;;0.00;0.00;;;14.40;99.90;13.00;96613.00;;;;5055434;28;20228;-76
2022/07/02 00:06:22;;;;;;;0.00;0.00;;;14.40;99.90;13.00;96615.00;;;;5054260;28;20199;-78
2022/07/02 00:08:51;;;;;;;0.10;0.10;;;14.40;99.90;12.90;96587.00;;;;5054845;28;20201;-77
2022/07/02 00:11:21;;;;;;;0.00;0.00;;;14.30;99.90;12.90;96623.00;;;;5055011;28;20195;-76
2022/07/02 00:13:50;;;;;;;0.00;0.00;;;14.30;99.90;12.90;96636.00;;;;5056727;28;20198;-76
2022/07/02 00:16:19;;;;;;;0.00;0.00;;;14.30;99.90;12.80;96569.00;;;;5063356;28;20197;-77
2022/07/02 00:18:47;;;;;;;0.00;0.00;;;14.30;99.90;12.80;96585.00;;;;5062446;28;20202;-77
2022/07/02 00:21:16;;;;;;;0.00;0.00;;;14.20;99.90;12.90;96594.00;;;;5062211;28;20216;-77
2022/07/02 00:23:44;;;;;;;0.10;0.10;;;14.20;99.90;12.70;96582.00;;;;5061719;28;20228;-74
2022/07/02 00:26:18;;;;;;;0.03;0.03;;;14.20;99.90;12.80;96577.00;;;;5061352;28;20252;-77
2022/07/02 00:29:05;;;;;;;0.00;0.00;;;14.20;99.90;12.80;96592.00;;;;5056911;28;20209;-76
2022/07/02 00:31:38;;;;;;;0.10;0.10;;;14.20;99.90;12.80;96587.00;;;;5054607;28;20199;-76
2022/07/02 00:34:08;;;;;;;0.03;0.03;;;14.20;99.90;12.80;96610.00;;;;5056149;28;20202;-76
2022/07/02 00:36:37;;;;;;;0.00;0.00;;;14.20;99.90;12.80;96597.00;;;;5056399;28;20202;-78
2022/07/02 00:39:05;;;;;;;0.00;0.00;;;14.20;99.90;12.80;96600.00;;;;5057607;28;20226;-78
2022/07/02 00:41:34;;;;;;;0.10;0.10;;;14.20;99.90;12.80;96589.00;;;;5059058;28;20285;-77
2022/07/02 00:44:04;;;;;;;0.00;0.00;;;14.20;99.90;12.70;96580.00;;;;5057882;28;20275;-77
2022/07/02 00:46:35;;;;;;;0.00;0.00;;;14.10;99.90;12.60;96576.00;;;;5056597;28;20380;-77
2022/07/02 00:49:03;;;;;;;0.10;0.10;;;14.10;99.90;12.70;96569.00;;;;5055706;28;20717;-77
2022/07/02 00:51:34;;;;;;;0.00;0.00;;;14.10;99.90;12.60;96557.00;;;;5053991;28;20688;-77
2022/07/02 00:54:03;;;;;;;0.00;0.00;;;14.00;99.90;12.50;96551.00;;;;5053364;28;20449;-76
2022/07/02 00:56:33;;;;;;;0.00;0.00;;;13.90;99.90;12.40;96552.00;;;;5052937;28;20533;-76
2022/07/02 00:59:04;;;;;;;0.00;0.00;;;13.80;99.90;12.40;96559.00;;;;5053211;28;20264;-75
2022/07/02 01:01:32;;;;;;;0.10;0.10;;;13.80;99.90;12.40;96556.00;;;;5054655;28;20206;-77
2022/07/02 01:04:02;;;;;;;0.00;0.00;;;13.80;99.90;12.30;96571.00;;;;5053411;28;20676;-77
2022/07/02 01:06:33;;;;;;;0.00;0.00;;;13.70;99.90;12.30;96560.00;;;;5053315;28;20269;-77
2022/07/02 01:11:50;;;;;;;0.00;0.00;;;13.70;99.90;12.30;96562.00;;;;5054006;28;20186;-78
2022/07/02 01:14:22;;;;;;;0.00;0.00;;;13.70;99.90;12.40;96579.00;;;;5053862;28;20582;-76
2022/07/02 01:16:50;;;;;;;0.00;0.00;;;13.90;99.90;12.50;96582.00;;;;5053060;28;20205;-76
2022/07/02 01:19:21;;;;;;;0.00;0.00;;;13.90;99.90;12.40;96592.00;;;;5053252;28;20214;-77
2022/07/02 01:22:18;;;;;;;0.00;0.00;;;13.90;99.90;12.40;96568.00;;;;5056010;28;20191;-77
2022/07/02 01:24:49;;;;;;;0.00;0.00;;;13.90;99.90;12.40;96586.00;;;;5056899;28;20213;-77
2022/07/02 01:27:19;;;;;;;0.00;0.00;;;13.80;99.90;12.40;96570.00;;;;5056835;28;20190;-76
2022/07/02 01:29:47;;;;;;;0.10;0.10;;;13.80;99.90;12.30;96558.00;;;;5055483;28;20225;-77
2022/07/02 01:32:16;;;;;;;0.10;0.10;;;13.70;99.90;12.30;96567.00;;;;5056213;28;20209;-77
2022/07/02 01:34:46;;;;;;;0.10;0.10;;;13.70;99.90;12.30;96577.00;;;;5057616;28;20202;-76
2022/07/02 01:37:18;;;;;;;0.10;0.10;;;13.70;99.90;12.30;96579.00;;;;5056800;28;20202;-76
2022/07/02 01:39:48;;;;;;;0.00;0.00;;;13.70;99.90;12.20;96527.00;;;;5056925;28;20206;-76
2022/07/02 01:42:16;;;;;;;0.00;0.00;;;13.60;99.90;12.20;96560.00;;;;5058297;28;20201;-76
2022/07/02 01:44:46;;;;;;;0.08;0.08;;;13.70;99.90;12.20;96554.00;;;;5059627;28;20222;-76
2022/07/02 01:47:15;;;;;;;0.00;0.00;;;13.70;99.90;12.40;96571.00;;;;5056771;28;20195;-77
2022/07/02 01:49:43;;;;;;;0.10;0.10;;;13.70;99.90;12.30;96577.00;;;;5056629;28;20207;-76
2022/07/02 01:52:11;;;;;;;0.00;0.00;;;13.70;99.90;12.40;96477.00;;;;5057508;28;20187;-76
2022/07/02 01:54:41;;;;;;;0.00;0.00;;;13.80;99.90;12.50;96584.00;;;;5058010;28;20195;-77
2022/07/02 01:57:09;;;;;;;0.00;0.00;;;13.90;99.90;12.60;96611.00;;;;5058705;28;20195;-77
2022/07/02 01:59:37;;;;;;;0.00;0.00;;;14.00;99.90;12.40;96588.00;;;;5058465;28;20257;-76
2022/07/02 02:02:06;;;;;;;0.10;0.10;;;13.80;99.90;12.50;96569.00;;;;5057606;28;20181;-76
2022/07/02 02:04:35;;;;;;;0.10;0.10;;;13.90;99.90;12.50;96587.00;;;;5056564;28;20219;-75
2022/07/02 02:07:05;;;;;;;0.00;0.00;;;13.90;99.90;12.40;96587.00;;;;5057188;28;20205;-77
2022/07/02 02:09:33;;;;;;;0.10;0.10;;;13.80;99.90;12.30;96565.00;;;;5057003;28;20305;-76
2022/07/02 02:12:03;;;;;;;0.00;0.00;;;13.70;99.90;12.20;96557.00;;;;5057608;28;20190;-77
2022/07/02 02:14:31;;;;;;;0.00;0.00;;;13.70;99.90;12.20;96563.00;;;;5057420;28;20187;-76
2022/07/02 02:16:59;;;;;;;0.10;0.10;;;13.70;99.90;12.10;96538.00;;;;5057025;28;20221;-76
2022/07/02 02:19:27;;;;;;;0.10;0.10;;;13.60;99.90;12.00;96531.00;;;;5055771;28;20697;-76
2022/07/02 02:21:56;;;;;;;0.10;0.10;;;13.50;99.90;12.00;96539.00;;;;5056253;28;20191;-76
2022/07/02 02:24:24;;;;;;;0.00;0.00;;;13.40;99.90;12.00;96547.00;;;;5056290;28;20404;-76
2022/07/02 02:26:52;;;;;;;0.10;0.10;;;13.40;99.90;12.00;96577.00;;;;5056424;28;20194;-77
2022/07/02 02:29:21;;;;;;;0.10;0.10;;;13.50;99.90;12.00;96566.00;;;;5056537;28;20214;-76
2022/07/02 02:31:49;;;;;;;0.10;0.10;;;13.50;99.90;12.00;96566.00;;;;5056069;28;20197;-76
2022/07/02 02:34:17;;;;;;;0.10;0.10;;;13.40;99.90;12.00;96577.00;;;;5056569;28;20700;-76
2022/07/02 02:36:45;;;;;;;0.10;0.10;;;13.40;99.90;11.90;96549.00;;;;5056650;28;20206;-76
2022/07/02 02:39:13;;;;;;;0.10;0.10;;;13.40;99.90;11.80;96555.00;;;;5054585;28;20214;-76
2022/07/02 02:41:41;;;;;;;0.10;0.10;;;13.20;99.90;11.70;96532.00;;;;5056965;28;20194;-77
2022/07/02 02:44:09;;;;;;;0.10;0.10;;;13.20;99.90;11.80;96536.00;;;;5056807;28;20229;-77
2022/07/02 02:46:38;;;;;;;0.00;0.00;;;13.20;99.90;11.80;96571.00;;;;5057037;28;20194;-77
2022/07/02 02:49:06;;;;;;;0.10;0.10;;;13.20;99.90;11.90;96564.00;;;;5057111;28;20225;-77
2022/07/02 02:51:34;;;;;;;0.08;0.08;;;13.30;99.90;11.90;96565.00;;;;5064548;28;20186;-76
2022/07/02 02:54:02;;;;;;;0.10;0.10;;;13.30;99.90;11.90;96560.00;;;;5067310;28;20202;-76
2022/07/02 02:56:30;;;;;;;0.00;0.00;;;13.30;99.90;11.90;96564.00;;;;5068704;28;20195;-76
2022/07/02 02:58:58;;;;;;;0.00;0.00;;;13.30;99.90;11.80;96550.00;;;;5065010;28;20197;-76
2022/07/02 03:01:27;;;;;;;0.00;0.00;;;13.30;99.90;11.70;96524.00;;;;5056326;28;20206;-76
2022/07/02 03:03:58;;;;;;;0.08;0.08;;;13.20;99.90;11.80;96583.00;;;;5055814;28;20296;-77
2022/07/02 03:06:26;;;;;;;0.10;0.10;;;13.20;99.90;11.80;96598.00;;;;5055789;28;20196;-78
2022/07/02 03:08:54;;;;;;;0.00;0.00;;;13.20;99.90;11.80;96597.00;;;;5055043;28;20186;-76
2022/07/02 03:11:22;;;;;;;0.05;0.05;;;13.20;99.90;11.80;96629.00;;;;5055929;28;20197;-75
2022/07/02 03:13:50;;;;;;;0.10;0.10;;;13.30;99.90;11.60;96503.00;;;;5056252;28;20198;-77
2022/07/02 03:16:18;;;;;;;0.00;0.00;;;13.10;99.90;11.60;96592.00;;;;5055997;28;20558;-76
2022/07/02 03:18:46;;;;;;;0.00;0.00;;;13.00;99.90;11.40;96590.00;;;;5055514;28;20684;-76
2022/07/02 03:21:16;;;;;;;0.10;0.10;;;12.90;99.90;11.50;96610.00;;;;5055718;28;20546;-77
2022/07/02 03:23:44;;;;;;;0.10;0.10;;;12.90;99.90;11.40;96620.00;;;;5055957;28;20265;-77
2022/07/02 03:26:12;;;;;;;0.00;0.00;;;12.90;99.90;11.40;96616.00;;;;5056013;28;20581;-76
2022/07/02 03:28:40;;;;;;;0.10;0.10;;;12.90;99.90;11.40;96609.00;;;;5055607;28;20190;-77
2022/07/02 03:31:08;;;;;;;0.10;0.10;;;12.90;99.90;11.30;96600.00;;;;5055326;28;20221;-76
2022/07/02 03:33:36;;;;;;;0.10;0.10;;;12.80;99.90;11.20;96604.00;;;;5055388;28;20273;-77
2022/07/02 03:36:05;;;;;;;0.00;0.00;;;12.70;99.90;11.20;96585.00;;;;5054986;28;20187;-77
2022/07/02 03:38:34;;;;;;;0.10;0.10;;;12.70;99.90;11.20;96591.00;;;;5053354;28;20226;-77
2022/07/02 03:41:02;;;;;;;0.08;0.08;;;12.60;99.90;11.20;96594.00;;;;5053767;28;20225;-76
2022/07/02 03:43:30;;;;;;;0.10;0.10;;;12.60;99.90;11.20;96588.00;;;;5053351;28;20224;-76
2022/07/02 03:45:58;;;;;;;0.10;0.10;;;12.60;99.90;11.10;96582.00;;;;5054340;28;20636;-77
2022/07/02 03:48:26;;;;;;;0.00;0.00;;;12.60;99.90;11.20;96602.00;;;;5055022;28;20202;-77
2022/07/02 03:50:54;;;;;;;0.00;0.00;;;12.60;99.90;11.20;96600.00;;;;5054446;28;20264;-76
2022/07/02 03:53:22;;;;;;;0.10;0.10;;;12.60;99.90;11.20;96596.00;;;;5055179;28;20228;-76
2022/07/02 03:55:52;;;;;;;0.10;0.10;;;12.60;99.90;11.20;96543.00;;;;5054507;28;20569;-77
2022/07/02 03:58:21;;;;;;;0.10;0.10;;;12.60;99.90;11.30;96622.00;;;;5054443;28;20194;-76
2022/07/02 04:00:49;;;;;;;0.00;0.00;;;12.70;99.90;11.30;96639.00;;;;5054622;28;20631;-77
2022/07/02 04:03:17;;;;;;;0.10;0.10;;;12.70;99.90;11.30;96652.00;;;;5057069;28;20187;-77
2022/07/02 04:05:45;;;;;;;0.10;0.10;;;12.80;99.90;11.30;96642.00;;;;5057475;28;20218;-77
2022/07/02 04:08:17;;;;;;;0.10;0.10;;;12.70;99.90;11.20;96629.00;;;;5056827;28;20567;-77
2022/07/02 04:10:45;;;;;;;0.10;0.10;;;12.60;99.90;11.20;96622.00;;;;5056047;28;20210;-78
2022/07/02 04:13:15;;;;;;;0.10;0.10;;;12.60;99.90;11.10;96617.00;;;;5056218;28;20199;-77
2022/07/02 04:15:43;;;;;;;0.10;0.10;;;12.60;99.90;11.30;96629.00;;;;5056038;28;20203;-77
2022/07/02 04:18:11;;;;;;;0.10;0.10;;;12.60;99.90;11.30;96565.00;;;;5055851;28;20273;-77
2022/07/02 04:20:39;;;;;;;0.10;0.10;;;12.70;99.90;11.40;96641.00;;;;5055911;28;20210;-77
2022/07/02 04:23:07;;;;;;;0.00;0.00;;;12.80;99.90;11.30;96635.00;;;;5055447;28;20198;-77
2022/07/02 04:25:35;;;;;;;0.10;0.10;;;12.80;99.90;11.30;96670.00;;;;5056220;28;20227;-77
2022/07/02 04:28:03;;;;;;;0.10;0.10;;;12.80;99.90;11.40;96657.00;;;;5055007;28;20194;-77
2022/07/02 04:30:33;;;;;;;0.10;0.10;;;12.80;99.90;11.40;96648.00;;;;5054717;28;20210;-77
2022/07/02 04:33:01;;;;;;;0.08;0.08;;;12.80;99.90;11.50;96673.00;;;;5054149;28;20195;-78
2022/07/02 04:35:30;;;;;;;0.10;0.10;;;12.80;99.90;11.50;96689.00;;;;5055252;28;20198;-77
2022/07/02 04:37:58;;;;;;;0.10;0.10;;;12.90;99.90;11.70;96686.00;;;;5052789;28;20417;-77
2022/07/02 04:40:26;;;;;;;0.10;0.10;;;13.10;99.90;11.80;96661.00;;;;5053244;28;20219;-77
2022/07/02 04:42:54;;;;;;;0.10;0.10;;;13.10;99.90;11.80;96701.00;;;;5054220;28;20216;-77
2022/07/02 04:45:22;;;;;;;0.10;0.10;;;13.20;99.90;11.90;96694.00;;;;5053099;28;20237;-77
2022/07/02 04:47:52;;;;;;;0.10;0.10;;;13.20;99.90;11.80;96675.00;;;;5054039;28;20202;-77
2022/07/02 04:50:20;;;;;;;0.10;0.10;;;13.20;99.90;11.90;96663.00;;;;5054251;28;20214;-77
2022/07/02 04:52:49;;;;;;;0.00;0.00;;;13.30;99.90;12.00;96668.00;;;;5054841;28;20201;-77
2022/07/02 04:55:17;;;;;;;0.10;0.10;;;13.30;99.90;12.00;96679.00;;;;5054202;28;20198;-77
2022/07/02 04:57:45;;;;;;;0.00;0.00;;;13.40;99.90;12.10;96674.00;;;;5053947;28;20197;-76
2022/07/02 05:00:15;;;;;;;0.10;0.10;;;13.40;99.90;12.20;96695.00;;;;5053700;28;20586;-76
2022/07/02 05:02:43;;;;;;;0.10;0.10;;;13.60;99.90;12.30;96703.00;;;;5053881;28;20202;-77
2022/07/02 05:05:12;;;;;;;0.00;0.00;;;13.60;99.90;12.40;96703.00;;;;5054209;28;20606;-77
2022/07/02 05:07:40;;;;;;;0.10;0.10;;;13.70;99.90;12.50;96713.00;;;;5053478;28;20716;-77
2022/07/02 05:10:09;;;;;;;0.00;0.00;;;13.80;99.90;12.50;96704.00;;;;5056438;28;20214;-77
2022/07/02 05:12:37;;;;;;;0.00;0.00;;;13.80;99.90;12.60;96727.00;;;;5054844;28;20613;-77
2022/07/02 05:15:06;;;;;;;0.00;0.00;;;14.00;99.90;12.60;96718.00;;;;5057930;28;20194;-75
2022/07/02 05:17:34;;;;;;;0.10;0.10;;;14.00;99.90;12.70;96751.00;;;;5063324;28;20194;-77
2022/07/02 05:20:02;;;;;;;0.00;0.00;;;14.10;99.90;12.90;96751.00;;;;5052306;28;20623;-77
2022/07/02 05:22:32;;;;;;;0.00;0.00;;;14.20;99.90;13.00;96771.00;;;;5052727;28;20566;-77
2022/07/02 05:25:00;;;;;;;0.00;0.00;;;14.30;99.90;13.00;96758.00;;;;5052274;28;20653;-76
2022/07/02 05:27:28;;;;;;;0.00;0.00;;;14.30;99.90;13.10;96770.00;;;;5052472;28;20190;-76
2022/07/02 05:29:56;;;;;;;0.10;0.10;;;14.40;99.90;13.20;96778.00;;;;5052050;28;20214;-77
2022/07/02 05:32:24;;;;;;;0.00;0.00;;;14.50;99.90;13.20;96791.00;;;;5054013;28;20194;-78
2022/07/02 05:34:52;;;;;;;0.00;0.00;;;14.50;99.90;13.40;96789.00;;;;5054657;28;20282;-77
2022/07/02 05:37:25;;;;;;;0.00;0.00;;;14.70;99.90;13.30;96772.00;;;;5057673;28;20194;-77
2022/07/02 05:39:54;;;;;;;0.00;0.00;;;14.60;99.90;13.40;96779.00;;;;5054837;28;20217;-77
2022/07/02 05:42:22;;;;;;;0.10;0.10;;;14.70;99.90;13.40;96777.00;;;;5054182;28;20199;-77
2022/07/02 05:44:50;;;;;;;0.10;0.10;;;14.70;99.90;13.50;96780.00;;;;5054343;28;20209;-77
2022/07/02 05:47:18;;;;;;;0.05;0.05;;;14.80;99.90;13.60;96778.00;;;;5055219;28;20218;-78
2022/07/02 05:49:46;;;;;;;0.10;0.10;;;14.80;99.90;13.70;96786.00;;;;5053873;28;20218;-77
2022/07/02 05:52:17;;;;;;;0.10;0.10;;;14.90;99.90;13.80;96806.00;;;;5053131;28;20197;-77
2022/07/02 05:54:45;;;;;;;0.10;0.10;;;15.00;99.90;13.80;96802.00;;;;5055721;28;20210;-77
2022/07/02 05:57:14;;;;;;;0.10;0.10;;;15.00;99.90;13.90;96799.00;;;;5058866;28;20206;-77
2022/07/02 05:59:42;;;;;;;0.00;0.00;;;15.20;99.90;14.00;96821.00;;;;5057955;28;20219;-76
2022/07/02 06:02:10;;;;;;;0.00;0.00;;;15.20;99.90;14.00;96804.00;;;;5053307;28;20198;-75
2022/07/02 06:04:38;;;;;;;0.00;0.00;;;15.20;99.90;14.10;96808.00;;;;5055269;28;20197;-78
2022/07/02 06:09:52;;;;;;;0.00;0.00;;;15.30;99.90;14.20;96807.00;;;;5060971;28;20206;-76
2022/07/02 06:12:22;;;;;;;0.00;0.00;;;15.40;99.90;14.30;96850.00;;;;5060445;28;20206;-76
2022/07/02 06:14:50;;;;;;;0.00;0.00;;;15.50;99.90;14.30;96843.00;;;;5061234;28;20206;-76
2022/07/02 06:17:18;;;;;;;0.00;0.00;;;15.50;99.90;14.40;96846.00;;;;5061688;28;20201;-76
2022/07/02 06:19:48;;;;;;;0.00;0.00;;;15.60;99.90;14.40;96840.00;;;;5060470;28;20720;-76
2022/07/02 06:22:16;;;;;;;0.00;0.00;;;15.60;99.90;14.50;96846.00;;;;5062592;28;20568;-76
2022/07/02 06:24:45;;;;;;;0.00;0.00;;;15.70;99.90;14.60;96843.00;;;;5064576;28;20199;-76
2022/07/02 06:27:14;;;;;;;0.00;0.00;;;15.80;99.90;14.70;96854.00;;;;5063368;28;20581;-76
2022/07/02 06:29:46;;;;;;;0.00;0.00;;;15.90;99.90;14.80;96829.00;;;;5058730;28;20206;-76
2022/07/02 06:32:14;;;;;;;0.00;0.00;;;16.00;99.90;14.90;96849.00;;;;5062170;28;20198;-76
2022/07/02 06:34:41;;;;;;;0.00;0.00;;;16.10;99.90;15.00;96842.00;;;;5058724;28;20194;-75
2022/07/02 06:37:10;;;;;;;0.00;0.00;;;16.20;99.90;15.10;96834.00;;;;5060795;28;20199;-75
2022/07/02 06:39:39;;;;;;;0.00;0.00;;;16.20;99.90;15.20;96861.00;;;;5058983;28;20206;-76
2022/07/02 06:42:23;;;;;;;0.10;0.10;;;16.40;99.90;15.30;96861.00;;;;5059097;28;20604;-76
2022/07/02 06:44:58;;;;;;;0.00;0.00;;;16.50;99.90;15.40;96867.00;;;;5056701;28;20202;-76
2022/07/02 06:47:28;;;;;;;0.00;0.00;;;16.60;99.90;15.60;96880.00;;;;5057870;28;20269;-75
2022/07/02 06:49:58;;;;;;;0.00;0.00;;;16.80;99.90;15.70;96870.00;;;;5056777;28;20218;-76
2022/07/02 06:52:26;;;;;;;0.00;0.00;;;16.90;99.90;15.80;96877.00;;;;5056783;28;20252;-76
2022/07/02 06:54:55;;;;;;;0.00;0.00;;;17.00;99.90;16.00;96886.00;;;;5059604;28;20183;-75
2022/07/02 06:57:22;;;;;;;0.00;0.00;;;17.20;99.90;16.10;96889.00;;;;5057048;28;20724;-75
2022/07/02 06:59:54;;;;;;;0.00;0.00;;;17.20;99.90;16.30;96887.00;;;;5056698;28;20210;-76
2022/07/02 07:02:23;;;;;;;0.00;0.00;;;17.40;99.90;16.40;96908.00;;;;5057887;28;20209;-76
2022/07/02 07:04:51;;;;;;;0.00;0.00;;;17.50;99.90;16.70;96917.00;;;;5058035;28;20273;-76
2022/07/02 07:07:25;;;;;;;0.10;0.10;;;17.80;99.90;16.90;96934.00;;;;5057910;28;20222;-76
2022/07/02 07:09:53;;;;;;;0.00;0.00;;;18.00;99.90;16.90;96935.00;;;;5057078;28;20641;-76
2022/07/02 07:12:21;;;;;;;0.00;0.00;;;18.10;99.90;17.00;96937.00;;;;5055043;28;20194;-76
2022/07/02 07:14:49;;;;;;;0.00;0.00;;;18.10;99.90;17.20;96943.00;;;;5054998;28;20555;-76
2022/07/02 07:17:17;;;;;;;0.00;0.00;;;18.30;99.90;17.40;96955.00;;;;5053468;28;20277;-76
2022/07/02 07:19:47;;;;;;;0.00;0.00;;;18.40;99.90;17.50;96958.00;;;;5054293;28;20237;-77
2022/07/02 07:22:15;;;;;;;0.00;0.00;;;18.60;99.90;17.50;96960.00;;;;5054334;28;20194;-77
2022/07/02 07:24:43;;;;;;;0.00;0.00;;;18.60;99.90;17.70;96977.00;;;;5059242;28;20191;-77
2022/07/02 07:27:11;;;;;;;0.00;0.00;;;18.70;99.90;17.80;96996.00;;;;5064708;28;20228;-76
2022/07/02 07:29:39;;;;;;;0.00;0.00;;;18.90;99.90;18.00;96972.00;;;;5064253;28;20222;-75
2022/07/02 07:32:08;;;;;;;0.00;0.00;;;19.10;99.90;18.20;96966.00;;;;5059850;28;20198;-75
2022/07/02 07:34:40;;;;;;;0.00;0.00;;;19.20;99.90;18.10;96980.00;;;;5060799;28;20209;-76
2022/07/02 07:37:11;;;;;;;0.00;0.00;;;19.40;99.90;18.40;96991.00;;;;5059604;28;20198;-78
2022/07/02 07:39:39;;;;;;;0.00;0.00;;;19.50;99.90;18.50;96992.00;;;;5059638;28;20221;-76
2022/07/02 07:42:08;;;;;;;0.00;0.00;;;19.60;99.90;18.70;97018.00;;;;5060823;28;20195;-76
2022/07/02 07:44:36;;;;;;;0.00;0.00;;;19.70;99.90;19.00;97037.00;;;;5058903;28;20666;-76
2022/07/02 07:47:05;;;;;;;0.00;0.00;;;19.90;99.90;19.20;97030.00;;;;5057761;28;20222;-76
2022/07/02 07:49:33;;;;;;;0.00;0.00;;;20.10;99.90;19.20;97058.00;;;;5057922;28;20218;-76
2022/07/02 07:52:01;;;;;;;0.00;0.00;;;20.20;99.90;19.40;97045.00;;;;5058033;28;20209;-76
2022/07/02 07:54:30;;;;;;;0.00;0.00;;;20.40;99.90;19.70;97073.00;;;;5053457;28;20206;-76
2022/07/02 07:56:58;;;;;;;0.00;0.00;;;20.60;99.90;19.90;97079.00;;;;5053428;28;20198;-76
2022/07/02 07:59:26;;;;;;;0.00;0.00;;;20.80;99.90;20.10;97086.00;;;;5053956;28;20217;-77
2022/07/02 08:01:54;;;;;;;0.00;0.00;;;21.00;99.90;20.40;97110.00;;;;5053324;28;20187;-75
2022/07/02 08:04:22;;;;;;;0.00;0.00;;;21.20;99.90;20.50;97101.00;;;;5053590;28;20273;-76
2022/07/02 08:06:50;;;;;;;0.00;0.00;;;21.30;99.90;20.60;97095.00;;;;5055309;28;20217;-75
2022/07/02 08:09:18;;;;;;;0.00;0.00;;;21.50;99.90;20.70;97115.00;;;;5053003;28;20217;-75
2022/07/02 08:11:47;;;;;;;0.00;0.00;;;21.60;99.90;20.80;97103.00;;;;5052888;28;20209;-75
2022/07/02 08:14:16;;;;;;;0.00;0.00;;;21.70;99.90;20.70;97111.00;;;;5053503;28;20187;-76
2022/07/02 08:16:44;;;;;;;0.00;0.00;;;21.70;99.90;21.10;97209.00;;;;5055682;28;20202;-77
2022/07/02 08:19:12;;;;;;;0.00;0.00;;;21.90;99.90;21.20;97213.00;;;;5058887;28;20213;-77
2022/07/02 08:21:40;;;;;;;0.00;0.00;;;22.00;99.90;21.40;97212.00;;;;5052907;28;20191;-77
2022/07/02 08:24:08;;;;;;;0.00;0.00;;;22.20;99.90;21.50;97228.00;;;;5052920;28;20662;-77
2022/07/02 08:26:36;;;;;;;0.00;0.00;;;22.30;99.90;21.10;97124.00;;;;5061321;28;20205;-75
2022/07/02 08:29:05;;;;;;;0.00;0.00;;;22.20;99.90;20.60;97111.00;;;;5076812;28;20186;-77
2022/07/02 08:31:33;;;;;;;0.00;0.00;;;21.70;99.90;20.70;97102.00;;;;5077565;28;20206;-76
2022/07/02 08:34:01;;;;;;;0.00;0.00;;;21.60;99.90;20.90;97123.00;;;;5076796;28;20211;-75
2022/07/02 08:36:29;;;;;;;0.00;0.00;;;21.90;99.90;21.20;97125.00;;;;5063582;28;20194;-77
2022/07/02 08:38:57;;;;;;;0.00;0.00;;;22.10;99.90;21.40;97120.00;;;;5054295;28;20669;-77
2022/07/02 08:41:26;;;;;;;0.00;0.00;;;22.30;99.90;21.60;97066.00;;;;5054115;28;20194;-77
2022/07/02 08:43:56;;;;;;;0.00;0.00;;;22.40;99.90;21.60;97129.00;;;;5053955;28;20198;-78
2022/07/02 08:46:27;;;;;;;0.00;0.00;;;22.40;99.90;21.60;97127.00;;;;5053107;28;20202;-77
2022/07/02 08:48:59;;;;;;;0.00;0.00;;;22.50;99.90;21.90;97130.00;;;;5053183;28;20556;-77
2022/07/02 08:51:29;;;;;;;0.00;0.00;;;22.70;99.90;21.90;97126.00;;;;5053137;28;20661;-77
2022/07/02 08:53:58;;;;;;;0.00;0.00;;;22.70;99.90;22.10;97145.00;;;;5052659;28;20668;-77
2022/07/02 08:56:28;;;;;;;0.00;0.00;;;22.90;99.90;22.40;97155.00;;;;5052598;28;20194;-76
2022/07/02 08:58:57;;;;;;;0.00;0.00;;;23.20;99.90;22.60;97173.00;;;;5051705;28;20198;-77
2022/07/02 09:01:26;;;;;;;0.00;0.00;;;23.40;99.90;22.70;97172.00;;;;5052276;28;20198;-77
2022/07/02 09:03:55;;;;;;;0.00;0.00;;;23.50;99.90;22.60;97163.00;;;;5052183;28;20190;-77
2022/07/02 09:06:28;;;;;;;0.00;0.00;;;23.40;99.90;22.70;97161.00;;;;5053204;28;20187;-78
2022/07/02 09:08:56;;;;;;;0.00;0.00;;;23.50;98.00;23.00;97169.00;;;;5071000;28;20213;-76
2022/07/02 09:11:24;;;;;;;0.00;0.00;;;23.80;98.20;23.10;97166.00;;;;5052111;28;20653;-75
2022/07/02 09:13:55;;;;;;;0.00;0.00;;;23.90;97.80;23.10;97177.00;;;;5052393;28;20527;-76
2022/07/02 09:16:23;;;;;;;0.00;0.00;;;23.90;98.40;23.30;97180.00;;;;5052090;28;20198;-77
2022/07/02 09:18:52;;;;;;;0.00;0.00;;;24.10;97.00;23.30;97185.00;;;;5051812;28;20190;-77
2022/07/02 09:21:20;;;;;;;0.00;0.00;;;24.20;97.00;23.70;97200.00;;;;5051840;28;20186;-77
2022/07/02 09:23:50;;;;;;;0.00;0.00;;;24.40;97.90;23.80;97205.00;;;;5051917;28;20193;-77
2022/07/02 09:26:20;;;;;;;0.00;0.00;;;24.60;97.30;24.10;97126.00;;;;5052036;28;20731;-77
2022/07/02 09:28:55;;;;;;;0.00;0.00;;;24.80;96.90;23.90;97177.00;;;;5051471;28;20685;-77
2022/07/02 09:31:23;;;;;;;0.00;0.00;;;24.80;96.60;24.10;97173.00;;;;5052033;28;20283;-77
2022/07/02 09:33:53;;;;;;;0.00;0.00;;;24.90;96.20;24.10;97170.00;;;;5051735;28;20198;-77
2022/07/02 09:36:23;;;;;;;0.00;0.00;;;24.80;94.30;24.30;97189.00;;;;5051351;28;20191;-76
2022/07/02 09:38:53;;;;;;;0.00;0.00;;;25.00;94.90;24.30;97174.00;;;;5050859;28;20195;-76
2022/07/02 09:41:23;;;;;;;0.00;0.00;;;25.00;94.90;24.40;97192.00;;;;5053653;28;20557;-76
2022/07/02 09:43:58;;;;;;;0.00;0.00;;;25.10;94.50;24.40;97179.00;;;;5055962;28;20224;-77
2022/07/02 09:46:29;;;;;;;0.00;0.00;;;25.10;94.40;24.60;97201.00;;;;5056127;28;20836;-77
2022/07/02 09:49:08;;;;;;;0.00;0.00;;;25.30;94.50;24.60;97213.00;;;;5065626;28;20221;-77
2022/07/02 09:51:51;;;;;;;0.00;0.00;;;25.40;94.50;24.60;97217.00;;;;5055775;28;20194;-76
2022/07/02 09:54:21;;;;;;;0.00;0.00;;;25.30;95.20;24.60;97242.00;;;;5055584;28;20198;-76
2022/07/02 09:56:54;;;;;;;0.00;0.00;;;25.40;95.10;24.40;97237.00;;;;5055517;28;20208;-77
2022/07/02 09:59:23;;;;;;;0.00;0.00;;;25.30;93.60;24.00;97227.00;;;;5055344;28;20280;-77
2022/07/02 10:01:51;;;;;;;0.00;0.00;;;24.90;94.30;24.00;97240.00;;;;5060876;28;20190;-77
2022/07/02 10:04:29;;;;;;;0.00;0.00;;;24.90;95.20;24.20;97216.00;;;;5063448;28;20198;-76
2022/07/02 10:06:59;;;;;;;0.00;0.00;;;24.90;94.20;24.60;97237.00;;;;5063655;28;20202;-76
2022/07/02 10:09:28;;;;;;;0.00;0.00;;;25.20;94.40;25.00;97243.00;;;;5054917;28;20518;-77
2022/07/02 10:11:57;;;;;;;0.00;0.00;;;25.60;94.00;24.80;97203.00;;;;5055457;28;20210;-77
2022/07/02 10:14:30;;;;;;;0.00;0.00;;;25.40;91.80;24.30;97190.00;;;;5055375;28;20198;-76
2022/07/02 10:16:59;;;;;;;0.00;0.00;;;25.10;93.30;24.50;97203.00;;;;5054827;28;20194;-76
2022/07/02 10:19:29;;;;;;;0.00;0.00;;;25.40;92.60;24.30;97176.00;;;;5055098;28;20289;-76
2022/07/02 10:21:59;;;;;;;0.00;0.00;;;25.20;92.60;24.20;97190.00;;;;5054957;28;20569;-76
2022/07/02 10:24:28;;;;;;;0.00;0.00;;;25.10;92.40;24.10;97172.00;;;;5055031;28;20205;-76
2022/07/02 10:27:00;;;;;;;0.00;0.00;;;24.90;92.70;24.10;97194.00;;;;5055282;28;20202;-76
2022/07/02 10:29:29;;;;;;;0.00;0.00;;;24.90;94.30;24.20;97191.00;;;;5054813;28;20744;-76
2022/07/02 10:32:13;;;;;;;0.00;0.00;;;25.00;94.30;24.30;97199.00;;;;5054806;28;20190;-77
2022/07/02 10:34:57;;;;;;;0.00;0.00;;;25.10;94.40;24.40;97212.00;;;;5054498;28;20658;-76
2022/07/02 10:37:25;;;;;;;0.00;0.00;;;25.10;93.90;24.20;97200.00;;;;5054820;28;20678;-77
2022/07/02 10:40:02;;;;;;;0.00;0.00;;;25.10;93.90;24.00;97188.00;;;;5054720;28;20569;-76
2022/07/02 10:42:41;;;;;;;0.00;0.00;;;24.90;94.20;24.10;97200.00;;;;5055168;28;20186;-76
2022/07/02 10:45:14;;;;;;;0.00;0.00;;;25.00;94.20;24.20;97159.00;;;;5054949;28;20198;-77
2022/07/02 10:48:02;;;;;;;0.00;0.00;;;25.00;93.90;24.10;97175.00;;;;5054845;28;20186;-77
2022/07/02 10:50:45;;;;;;;0.00;0.00;;;24.80;94.10;24.50;97188.00;;;;5054691;28;20217;-78
2022/07/02 10:53:16;;;;;;;0.00;0.00;;;25.20;93.90;25.00;97197.00;;;;5053154;28;20654;-77
2022/07/02 10:55:56;;;;;;;0.00;0.00;;;25.60;93.10;25.40;97217.00;;;;5054359;28;20262;-77
2022/07/02 10:58:27;;;;;;;0.00;0.00;;;25.80;92.50;25.20;97199.00;;;;5054243;28;20205;-78
2022/07/02 11:00:56;;;;;;;0.00;0.00;;;25.70;93.00;24.90;97183.00;;;;5052710;28;20218;-77
2022/07/02 11:03:26;;;;;;;0.00;0.00;;;25.70;93.00;24.60;97178.00;;;;5054370;28;20205;-78
2022/07/02 11:06:00;;;;;;;0.00;0.00;;;25.40;92.30;24.30;97175.00;;;;5057933;28;20198;-75
2022/07/02 11:08:52;;;;;;;0.00;0.00;;;25.00;93.00;24.40;97175.00;;;;5053936;28;20207;-78
2022/07/02 11:11:48;;;;;;;0.00;0.00;;;25.00;93.00;24.10;97174.00;;;;5060154;28;20190;-77